Time;durP1;ratioP1;P1;durP2;ratioP2;P2;SDS_P1;SDS_P2;PMS_P1;PMS_P2;Temp;Humidity;BMP_temperature;BMP_pressure;BME280_temperature;BME280_humidity;BME280_pressure;Samples;Min_cycle;Max_cycle;Signal;HPM_P1;HPM_P2
2021/12/01 00:06:26;;;;;;;1999.90;999.90;;;;;;;5.22;66.99;99917.84;15621612;28;20053;-81
2021/12/01 00:13:59;;;;;;;1999.90;999.90;;;;;;;5.16;67.65;99913.56;15621618;28;20096;-80
2021/12/01 00:21:33;;;;;;;1999.90;999.90;;;;;;;5.14;68.29;99902.00;15595309;28;20050;-79
2021/12/01 00:29:06;;;;;;;1999.90;999.90;;;;;;;4.93;68.70;99898.16;15552549;28;20061;-79
2021/12/01 00:36:40;;;;;;;1999.90;999.90;;;;;;;4.83;69.35;99890.91;15568927;28;20128;-78
2021/12/01 00:44:13;;;;;;;1999.90;999.90;;;;;;;4.72;71.39;99883.19;15594519;28;20093;-79
2021/12/01 00:51:47;;;;;;;1999.90;999.90;;;;;;;4.80;70.52;99890.75;15614312;28;20069;-80
2021/12/01 00:59:20;;;;;;;1999.90;999.90;;;;;;;4.79;70.47;99898.19;15551537;28;20080;-77
2021/12/01 01:06:55;;;;;;;1999.90;999.90;;;;;;;4.78;70.74;99879.97;15581773;28;20053;-77
2021/12/01 01:22:20;;;;;;;1999.90;999.90;;;;;;;4.92;71.65;99861.38;15631326;28;20413;-82
2021/12/01 01:29:55;;;;;;;1999.90;999.90;;;;;;;5.19;71.25;99856.81;15630826;28;20132;-82
2021/12/01 01:37:29;;;;;;;1999.90;999.90;;;;;;;5.20;71.92;99848.19;15611246;28;20041;-79
2021/12/01 01:45:02;;;;;;;1999.90;999.90;;;;;;;5.24;71.77;99819.91;15594677;28;20042;-82
2021/12/01 01:52:37;;;;;;;1999.90;999.90;;;;;;;5.15;71.91;99812.38;15548866;28;20409;-81
2021/12/01 02:00:12;;;;;;;1999.90;999.90;;;;;;;5.09;72.17;99799.00;15563937;28;20073;-80
2021/12/01 02:07:47;;;;;;;1999.90;999.90;;;;;;;5.22;71.72;99782.31;15565511;28;20041;-81
2021/12/01 02:15:20;;;;;;;1999.90;999.90;;;;;;;5.34;71.23;99759.56;15543888;28;20049;-80
2021/12/01 02:22:54;;;;;;;1999.90;999.90;;;;;;;5.37;71.21;99749.81;15582086;28;20136;-78
2021/12/01 02:30:27;;;;;;;1999.90;999.90;;;;;;;5.34;71.98;99736.63;15587784;28;20416;-79
2021/12/01 02:38:04;;;;;;;1999.90;999.90;;;;;;;5.39;72.08;99715.16;15602698;28;20145;-78
2021/12/01 02:45:39;;;;;;;1999.90;999.90;;;;;;;5.32;72.46;99709.28;15559978;28;20104;-82
2021/12/01 02:53:13;;;;;;;1999.90;999.90;;;;;;;5.33;72.30;99694.31;15544580;28;20046;-80
2021/12/01 03:00:56;;;;;;;1999.90;999.90;;;;;;;5.39;72.83;99676.41;15607269;28;20049;-78
2021/12/01 03:08:31;;;;;;;1999.90;999.90;;;;;;;5.49;72.99;99658.69;15629044;28;20045;-79
2021/12/01 03:16:04;;;;;;;1999.90;999.90;;;;;;;5.30;74.16;99633.28;15627226;28;20042;-78
2021/12/01 03:23:42;;;;;;;1999.90;999.90;;;;;;;5.14;75.42;99631.00;15627169;28;20049;-79
2021/12/01 03:31:15;;;;;;;1999.90;999.90;;;;;;;5.39;75.43;99626.63;15595822;28;20069;-80
2021/12/01 03:38:53;;;;;;;1999.90;999.90;;;;;;;5.56;74.51;99606.44;15545188;28;20518;-80
2021/12/01 03:46:26;;;;;;;1999.90;999.90;;;;;;;5.57;74.96;99591.47;15560077;28;20339;-80
2021/12/01 03:54:00;;;;;;;1999.90;999.90;;;;;;;5.57;75.47;99577.63;15559952;28;20054;-79
2021/12/01 04:01:33;;;;;;;1999.90;999.90;;;;;;;5.45;76.10;99566.41;15554428;28;20074;-78
2021/12/01 04:09:08;;;;;;;1999.90;999.90;;;;;;;5.18;77.37;99562.84;15568857;28;20045;-81
2021/12/01 04:16:41;;;;;;;1999.90;999.90;;;;;;;5.29;77.68;99545.91;15577570;28;20248;-81
2021/12/01 04:24:15;;;;;;;1999.90;999.90;;;;;;;5.29;78.13;99527.38;15560299;28;20045;-78
2021/12/01 04:31:48;;;;;;;1999.90;999.90;;;;;;;5.53;77.95;99510.28;15623710;28;20045;-81
2021/12/01 04:39:22;;;;;;;1999.90;999.90;;;;;;;5.46;78.68;99493.34;15606420;28;20045;-79
2021/12/01 04:46:57;;;;;;;1999.90;999.90;;;;;;;5.34;79.70;99468.31;15568589;28;20343;-79
2021/12/01 04:54:33;;;;;;;1999.90;999.90;;;;;;;5.28;81.20;99456.59;15548309;28;20528;-80
2021/12/01 05:02:06;;;;;;;1999.90;999.90;;;;;;;5.29;82.57;99425.03;15592472;28;20304;-79
2021/12/01 05:09:40;;;;;;;1999.90;999.90;;;;;;;5.39;82.92;99410.03;15609171;28;20045;-80
2021/12/01 05:17:13;;;;;;;1999.90;999.90;;;;;;;5.28;83.76;99401.28;15625524;28;20096;-78
2021/12/01 05:24:48;;;;;;;1999.90;999.90;;;;;;;5.29;83.41;99375.25;15608928;28;20050;-81
2021/12/01 05:32:21;;;;;;;1999.90;999.90;;;;;;;5.32;84.19;99355.25;15629350;28;20501;-80
2021/12/01 05:39:55;;;;;;;1999.90;999.90;;;;;;;5.33;84.95;99328.41;15574431;28;20049;-80
2021/12/01 05:47:29;;;;;;;1999.90;999.90;;;;;;;5.48;84.91;99305.69;15558683;28;20065;-82
2021/12/01 05:55:05;;;;;;;1999.90;999.90;;;;;;;5.65;84.53;99275.16;15563987;28;20045;-83
2021/12/01 06:02:38;;;;;;;1999.90;999.90;;;;;;;5.76;84.14;99261.75;15585652;28;20493;-79
2021/12/01 06:10:13;;;;;;;1999.90;999.90;;;;;;;5.56;85.80;99249.50;15609043;28;20135;-79
2021/12/01 06:17:46;;;;;;;1999.90;999.90;;;;;;;5.75;85.70;99240.75;15594737;28;20046;-81
2021/12/01 06:25:21;;;;;;;1999.90;999.90;;;;;;;5.89;85.34;99224.69;15565036;28;20050;-80
2021/12/01 06:32:54;;;;;;;1999.90;999.90;;;;;;;5.88;85.33;99202.88;15590264;28;20053;-82
2021/12/01 06:40:29;;;;;;;1999.90;999.90;;;;;;;6.01;86.07;99199.84;15619279;28;20045;-79
2021/12/01 06:48:02;;;;;;;1999.90;999.90;;;;;;;5.95;86.66;99178.28;15619227;28;20044;-80
2021/12/01 06:55:36;;;;;;;1999.90;999.90;;;;;;;6.31;86.25;99175.63;15621195;28;20197;-81
2021/12/01 07:03:09;;;;;;;1999.90;999.90;;;;;;;6.59;85.45;99152.81;15602560;28;20049;-79
2021/12/01 07:10:44;;;;;;;1999.90;999.90;;;;;;;6.87;85.04;99144.63;15556072;28;20104;-81
2021/12/01 07:18:17;;;;;;;1999.90;999.90;;;;;;;6.96;85.21;99125.91;15556755;28;20108;-81
2021/12/01 07:25:51;;;;;;;1999.90;999.90;;;;;;;6.90;86.89;99100.41;15558655;28;20056;-81
2021/12/01 07:33:24;;;;;;;1999.90;999.90;;;;;;;7.03;86.93;99086.53;15562253;28;20049;-79
2021/12/01 07:40:59;;;;;;;1999.90;999.90;;;;;;;7.25;86.84;99058.28;15574512;28;20073;-78
2021/12/01 07:48:32;;;;;;;1999.90;999.90;;;;;;;7.39;86.94;99042.03;15619185;28;20057;-81
2021/12/01 07:56:07;;;;;;;1999.90;999.90;;;;;;;7.63;86.62;99034.78;15612516;28;20520;-77
2021/12/01 08:03:40;;;;;;;1999.90;999.90;;;;;;;7.86;85.57;99027.50;15594523;28;20414;-79
2021/12/01 08:11:14;;;;;;;1999.90;999.90;;;;;;;7.73;86.43;99023.19;15639411;28;20160;-81
2021/12/01 08:18:51;;;;;;;1999.90;999.90;;;;;;;7.89;85.83;99014.84;15628168;28;20041;-79
2021/12/01 08:26:25;;;;;;;1999.90;999.90;;;;;;;7.83;85.86;99011.56;15625028;28;20108;-81
2021/12/01 08:33:58;;;;;;;1999.90;999.90;;;;;;;7.82;85.09;98993.28;15620118;28;20091;-81
2021/12/01 08:41:33;;;;;;;1999.90;999.90;;;;;;;8.22;83.69;98983.97;15578419;28;20042;-79
2021/12/01 08:49:07;;;;;;;1999.90;999.90;;;;;;;8.12;83.87;98976.97;15580203;28;20053;-81
2021/12/01 08:56:41;;;;;;;1999.90;999.90;;;;;;;8.20;83.44;98967.66;15588631;28;20037;-81
2021/12/01 09:04:14;;;;;;;1999.90;999.90;;;;;;;8.07;83.15;98961.38;15585203;28;20049;-80
2021/12/01 09:11:52;;;;;;;1999.90;999.90;;;;;;;8.11;83.03;98926.16;15553192;28;20076;-79
2021/12/01 09:19:26;;;;;;;1999.90;999.90;;;;;;;8.09;83.19;98930.47;15559053;28;20045;-80
2021/12/01 09:27:00;;;;;;;1999.90;999.90;;;;;;;8.28;82.60;98919.44;15635373;28;20038;-78
2021/12/01 09:34:33;;;;;;;1999.90;999.90;;;;;;;8.10;82.40;98896.78;15643945;28;20032;-79
2021/12/01 09:42:08;;;;;;;1999.90;999.90;;;;;;;8.15;82.64;98890.16;15615819;28;20041;-81
2021/12/01 09:49:42;;;;;;;1999.90;999.90;;;;;;;8.29;81.51;98879.34;15613426;28;20047;-79
2021/12/01 09:57:17;;;;;;;1999.90;999.90;;;;;;;8.31;81.16;98868.69;15565277;28;20058;-81
2021/12/01 10:04:50;;;;;;;1999.90;999.90;;;;;;;8.46;80.51;98846.81;15574889;28;20084;-80
2021/12/01 10:12:25;;;;;;;1999.90;999.90;;;;;;;8.64;80.08;98825.72;15567757;28;20046;-81
2021/12/01 10:20:10;;;;;;;1999.90;999.90;;;;;;;8.50;80.36;98811.53;15549156;28;20072;-82
2021/12/01 10:27:45;;;;;;;1999.90;999.90;;;;;;;8.46;80.62;98802.34;15588906;28;20081;-78
2021/12/01 10:35:32;;;;;;;1999.90;999.90;;;;;;;8.68;79.56;98791.28;15590529;28;20042;-78
2021/12/01 10:43:09;;;;;;;1999.90;999.90;;;;;;;8.50;80.38;98783.75;15614974;28;20049;-77
2021/12/01 10:50:43;;;;;;;1999.90;999.90;;;;;;;8.55;79.96;98759.25;15619622;28;20038;-81
2021/12/01 10:58:19;;;;;;;1999.90;999.90;;;;;;;8.43;80.71;98737.16;15565668;28;20112;-81
2021/12/01 11:05:55;;;;;;;1999.90;999.90;;;;;;;8.42;80.76;98730.00;15550213;28;20716;-81
2021/12/01 11:13:29;;;;;;;1999.90;999.90;;;;;;;8.46;80.58;98719.75;15605776;28;20476;-81
2021/12/01 11:21:04;;;;;;;1999.90;999.90;;;;;;;8.63;79.38;98701.81;15620648;28;20049;-80
2021/12/01 11:28:41;;;;;;;1999.90;999.90;;;;;;;8.81;78.34;98674.34;15622142;28;20049;-79
2021/12/01 11:36:20;;;;;;;1999.90;999.90;;;;;;;8.83;77.54;98661.66;15611982;28;20496;-78
2021/12/01 11:43:56;;;;;;;1999.90;999.90;;;;;;;8.68;78.13;98654.25;15601276;28;20049;-78
2021/12/01 11:51:38;;;;;;;1999.90;999.90;;;;;;;8.79;77.21;98637.75;15582169;28;20042;-77
2021/12/01 11:59:21;;;;;;;1999.90;999.90;;;;;;;8.93;75.82;98626.84;15575716;28;20046;-80
2021/12/01 12:07:01;;;;;;;1999.90;999.90;;;;;;;8.99;75.66;98614.25;15567889;28;20050;-80
2021/12/01 12:14:39;;;;;;;1999.90;999.90;;;;;;;9.04;75.27;98599.22;15550837;28;20049;-82
2021/12/01 12:22:12;;;;;;;1999.90;999.90;;;;;;;9.11;74.66;98579.84;15557344;28;20038;-81
2021/12/01 12:29:47;;;;;;;1999.90;999.90;;;;;;;9.10;73.97;98551.22;15572808;28;20053;-81
2021/12/01 12:37:23;;;;;;;1999.90;999.90;;;;;;;9.36;73.39;98557.94;15582836;28;20043;-77
2021/12/01 12:44:58;;;;;;;1999.90;999.90;;;;;;;9.33;73.45;98534.44;15636833;28;20054;-80
2021/12/01 12:52:35;;;;;;;1999.90;999.90;;;;;;;9.27;72.86;98522.03;15592292;28;20037;-80
2021/12/01 13:00:22;;;;;;;1999.90;999.90;;;;;;;9.34;73.11;98511.00;15569427;28;20255;-83
2021/12/01 13:07:56;;;;;;;1999.90;999.90;;;;;;;9.34;72.71;98507.41;15602572;28;20044;-80
2021/12/01 13:15:32;;;;;;;;;;;;;;;9.45;72.46;98486.88;15612277;28;20103;-79
2021/12/01 13:23:13;;;;;;;1999.90;999.90;;;;;;;9.50;72.32;98463.50;15634867;28;20465;-82
2021/12/01 13:30:59;;;;;;;1999.90;999.90;;;;;;;9.52;71.76;98461.94;15610852;28;20091;-80
2021/12/01 13:38:34;;;;;;;1999.90;999.90;;;;;;;9.61;71.65;98450.50;15622358;28;20065;-80
2021/12/01 13:46:09;;;;;;;1999.90;999.90;;;;;;;9.67;71.87;98440.59;15549124;28;20181;-83
2021/12/01 13:53:42;;;;;;;1999.90;999.90;;;;;;;9.65;71.39;98442.97;15570393;28;20054;-81
2021/12/01 14:01:18;;;;;;;1999.90;999.90;;;;;;;9.88;71.00;98428.88;15568260;28;20050;-81
2021/12/01 14:08:52;;;;;;;1999.90;999.90;;;;;;;9.77;70.94;98414.03;15579175;28;20588;-79
2021/12/01 14:16:27;;;;;;;;;;;;;;;9.97;70.48;98389.56;15584881;28;20124;-82
2021/12/01 14:24:01;;;;;;;1999.90;999.90;;;;;;;9.95;70.70;98376.03;15617869;28;20028;-80
2021/12/01 14:31:37;;;;;;;1999.90;999.90;;;;;;;9.90;70.92;98342.13;15583944;28;20397;-82
2021/12/01 14:39:14;;;;;;;1999.90;999.90;;;;;;;10.22;70.36;98348.81;15566270;28;20521;-83
2021/12/01 14:46:56;;;;;;;1999.90;999.90;;;;;;;10.06;70.78;98326.75;15591744;28;20072;-80
2021/12/01 14:54:34;;;;;;;1999.90;999.90;;;;;;;9.86;70.76;98310.69;15625443;28;20574;-81
2021/12/01 15:02:21;;;;;;;1999.90;999.90;;;;;;;9.84;71.02;98297.94;15625855;28;20041;-80
2021/12/01 15:09:54;;;;;;;1999.90;999.90;;;;;;;9.84;70.90;98284.03;15609444;28;20041;-81
2021/12/01 15:17:30;;;;;;;1999.90;999.90;;;;;;;9.84;70.93;98275.66;15626980;28;20501;-83
2021/12/01 15:25:03;;;;;;;1999.90;999.90;;;;;;;9.88;70.40;98267.31;15567542;28;20038;-80
2021/12/01 15:32:37;;;;;;;1999.90;999.90;;;;;;;9.86;70.68;98282.84;15565925;28;20076;-82
2021/12/01 15:40:11;;;;;;;1999.90;999.90;;;;;;;9.99;70.39;98262.63;15558329;28;20503;-81
2021/12/01 15:47:46;;;;;;;1999.90;999.90;;;;;;;10.01;70.00;98253.91;15548849;28;20050;-83
2021/12/01 15:55:19;;;;;;;1999.90;999.90;;;;;;;10.15;69.59;98231.69;15571585;28;20046;-81
2021/12/01 16:02:56;;;;;;;1999.90;999.90;;;;;;;10.13;69.75;98220.94;15587228;28;20096;-82
2021/12/01 16:10:29;;;;;;;1999.90;999.90;;;;;;;10.10;69.66;98212.53;15580459;28;20046;-81
2021/12/01 16:18:03;;;;;;;;;;;;;;;10.25;68.82;98196.72;15584554;28;20072;-82
2021/12/01 16:25:36;;;;;;;;;;;;;;;10.64;67.79;98194.09;15622714;28;20365;-83
2021/12/01 16:33:10;;;;;;;1999.90;999.90;;;;;;;10.50;67.96;98192.03;15639316;28;19921;-83
2021/12/01 16:40:44;;;;;;;1999.90;999.90;;;;;;;10.35;68.35;98179.25;15657487;28;20045;-81
2021/12/01 16:48:18;;;;;;;1999.90;999.90;;;;;;;10.51;68.21;98170.53;15634535;28;20152;-80
2021/12/01 16:55:51;;;;;;;1999.90;999.90;;;;;;;10.56;68.40;98175.72;15632567;28;20107;-80
2021/12/01 17:03:27;;;;;;;1999.90;999.90;;;;;;;10.64;68.42;98182.94;15629977;28;20536;-81
2021/12/01 17:11:01;;;;;;;1999.90;999.90;;;;;;;10.58;68.76;98146.25;15612323;28;20140;-80
2021/12/01 17:18:40;;;;;;;1999.90;999.90;;;;;;;10.70;68.62;98112.41;15564710;28;20045;-83
2021/12/01 17:26:14;;;;;;;1999.90;999.90;;;;;;;10.45;69.54;98131.09;15588648;23;20104;-65
2021/12/01 17:33:48;;;;;;;1999.90;999.90;;;;;;;10.59;68.94;98130.31;15610247;22;20046;-61
2021/12/01 17:41:21;;;;;;;1999.90;999.90;;;;;;;10.39;69.73;98124.31;15663955;28;20068;-62
2021/12/01 17:48:55;;;;;;;1999.90;999.90;;;;;;;10.31;70.11;98128.25;15677161;28;20128;-62
2021/12/01 17:56:28;;;;;;;1999.90;999.90;;;;;;;10.40;69.47;98120.31;15660286;28;20133;-62
2021/12/01 18:04:01;;;;;;;1999.90;999.90;;;;;;;10.40;69.95;98121.13;15613795;28;20577;-61
2021/12/01 18:11:34;;;;;;;1999.90;999.90;;;;;;;10.22;70.56;98122.28;15614215;28;20054;-61
2021/12/01 18:19:08;;;;;;;1999.90;999.90;;;;;;;10.49;70.31;98123.53;15611738;28;20501;-60
2021/12/01 18:26:41;;;;;;;1999.90;999.90;;;;;;;10.62;70.57;98108.00;15613310;28;20064;-61
2021/12/01 18:34:15;;;;;;;1999.90;999.90;;;;;;;10.35;70.90;98120.72;15659231;28;20041;-60
2021/12/01 18:41:47;;;;;;;1999.90;999.90;;;;;;;10.51;69.99;98100.84;15675035;28;20045;-62
2021/12/01 18:49:21;;;;;;;1999.90;999.90;;;;;;;10.79;68.33;98095.28;15673214;28;20045;-61
2021/12/01 18:56:54;;;;;;;1999.90;999.90;;;;;;;10.74;67.51;98084.56;15673006;28;20045;-61
2021/12/01 19:04:28;;;;;;;1999.90;999.90;;;;;;;10.62;67.35;98088.50;15640229;28;20405;-63
2021/12/01 19:12:00;;;;;;;1999.90;999.90;;;;;;;10.47;67.13;98077.75;15632588;28;20474;-61
2021/12/01 19:19:35;;;;;;;1999.90;999.90;;;;;;;10.63;66.19;98078.16;15637591;28;20490;-62
2021/12/01 19:27:08;;;;;;;1999.90;999.90;;;;;;;10.64;65.86;98065.81;15636838;28;20034;-62
2021/12/01 19:34:42;;;;;;;1999.90;999.90;;;;;;;10.50;66.18;98057.41;15609997;28;20045;-62
2021/12/01 19:42:14;;;;;;;1999.90;999.90;;;;;;;10.20;66.30;98058.53;15594639;28;20076;-60
2021/12/01 19:49:49;;;;;;;1999.90;999.90;;;;;;;10.53;65.63;98065.81;15672269;28;20037;-62
2021/12/01 19:57:22;;;;;;;1999.90;999.90;;;;;;;10.37;65.32;98068.97;15671776;28;20486;-62
2021/12/01 20:04:55;;;;;;;1999.90;999.90;;;;;;;10.27;65.09;98094.03;15670195;28;20513;-62
2021/12/01 20:12:28;;;;;;;1999.90;999.90;;;;;;;10.26;65.06;98089.63;15671525;28;20045;-62
2021/12/01 20:20:03;;;;;;;1999.90;999.90;;;;;;;9.77;69.81;98119.66;15638697;28;20046;-62
2021/12/01 20:27:37;;;;;;;1999.90;999.90;;;;;;;9.43;71.36;98110.75;15610558;28;20071;-62
2021/12/01 20:35:13;;;;;;;1999.90;999.90;;;;;;;9.84;70.50;98102.19;15609883;28;20495;-62
2021/12/01 20:42:49;;;;;;;1999.90;999.90;;;;;;;9.25;74.40;98112.59;15633492;28;20123;-62
2021/12/01 20:58:18;;;;;;;;;;;;;;;7.96;79.25;98143.91;15619729;28;20065;-61
2021/12/01 21:05:56;;;;;;;1999.90;999.90;;;;;;;7.87;80.66;98140.59;15620056;28;19925;-60
2021/12/01 21:13:34;;;;;;;1999.90;999.90;;;;;;;7.81;76.10;98156.81;15613018;28;20047;-58
2021/12/01 21:21:12;;;;;;;1999.90;999.90;;;;;;;7.89;71.81;98157.69;15634184;28;20042;-61
2021/12/01 21:28:47;;;;;;;1999.90;999.90;;;;;;;7.79;70.45;98138.91;15667374;28;20211;-60
2021/12/01 21:36:24;;;;;;;1999.90;999.90;;;;;;;7.96;68.57;98165.31;15641381;28;20157;-60
2021/12/01 21:43:57;;;;;;;1999.90;999.90;;;;;;;8.02;66.32;98153.50;15618082;28;20071;-61
2021/12/01 21:51:30;;;;;;;1999.90;999.90;;;;;;;8.23;65.07;98164.06;15637064;28;20206;-61
2021/12/01 21:59:03;;;;;;;1999.90;999.90;;;;;;;8.08;64.01;98143.66;15679732;28;20037;-61
2021/12/01 22:06:40;;;;;;;1999.90;999.90;;;;;;;8.21;62.85;98168.38;15676720;28;20044;-61
2021/12/01 22:14:13;;;;;;;1999.90;999.90;;;;;;;8.23;60.93;98171.56;15678395;28;20104;-61
2021/12/01 22:21:51;;;;;;;1999.90;999.90;;;;;;;8.51;60.32;98180.28;15677304;28;20150;-61
2021/12/01 22:29:28;;;;;;;1999.90;999.90;;;;;;;8.27;59.96;98155.78;15623855;28;20081;-61
2021/12/01 22:37:02;;;;;;;1999.90;999.90;;;;;;;8.04;60.41;98180.91;15596724;28;20045;-61
2021/12/01 22:44:35;;;;;;;1999.90;999.90;;;;;;;8.03;59.73;98193.97;15613577;28;20052;-60
2021/12/01 22:52:09;;;;;;;1999.90;999.90;;;;;;;8.06;59.38;98192.41;15609230;28;20073;-61
2021/12/01 22:59:49;;;;;;;1999.90;999.90;;;;;;;7.84;59.49;98204.41;15632168;28;20050;-59
2021/12/01 23:07:25;;;;;;;1999.90;999.90;;;;;;;7.77;60.81;98230.91;15671641;28;20079;-60
2021/12/01 23:14:58;;;;;;;1999.90;999.90;;;;;;;7.82;61.15;98241.69;15618368;28;20045;-60
2021/12/01 23:22:40;;;;;;;1999.90;999.90;;;;;;;7.46;61.47;98278.38;15625699;28;20467;-59
2021/12/01 23:30:14;;;;;;;1999.90;999.90;;;;;;;7.51;59.73;98287.19;15611895;28;20068;-60
2021/12/01 23:37:47;;;;;;;1999.90;999.90;;;;;;;7.14;59.02;98272.28;15574191;22;20463;-62
2021/12/01 23:45:28;;;;;;;1999.90;999.90;;;;;;;7.32;57.16;98269.81;15550242;28;20046;-60
2021/12/01 23:53:02;;;;;;;1999.90;999.90;;;;;;;7.40;58.51;98279.84;15548408;28;20119;-59
